createdAt,value
2022-11-09T00:02:43.863Z,11.65
2022-11-09T00:07:45.755Z,13.05
2022-11-09T00:12:47.383Z,10.88
2022-11-09T00:17:48.997Z,11.07
2022-11-09T00:22:50.845Z,10.05
2022-11-09T00:27:56.378Z,7.40
2022-11-09T00:32:58.050Z,9.25
2022-11-09T00:37:59.789Z,9.13
2022-11-09T00:43:01.428Z,9.82
2022-11-09T00:48:03.927Z,12.15
2022-11-09T00:53:05.534Z,16.00
2022-11-09T00:58:07.154Z,9.27
2022-11-09T01:03:08.773Z,11.90
2022-11-09T01:08:10.780Z,7.50
2022-11-09T01:13:15.803Z,9.15
2022-11-09T01:18:19.028Z,13.00
2022-11-09T01:23:21.534Z,11.85
2022-11-09T01:28:23.282Z,8.38
2022-11-09T01:33:24.880Z,8.20
2022-11-09T01:38:26.488Z,8.25
2022-11-09T01:43:28.507Z,6.78
2022-11-09T01:48:36.272Z,5.03
2022-11-09T01:53:43.471Z,5.93
2022-11-09T01:58:53.605Z,5.97
2022-11-09T02:03:59.896Z,6.28
2022-11-09T02:09:12.720Z,4.50
2022-11-09T02:14:15.260Z,5.47
2022-11-09T02:19:16.904Z,4.72
2022-11-09T02:24:19.275Z,5.72
2022-11-09T02:29:25.188Z,3.95
2022-11-09T02:34:27.123Z,3.90
2022-11-09T02:39:29.101Z,9.05
2022-11-09T02:44:34.994Z,6.75
2022-11-09T02:49:36.708Z,7.40
2022-11-09T02:54:38.409Z,7.03
2022-11-09T02:59:40.040Z,8.48
2022-11-09T03:04:41.683Z,6.95
2022-11-09T03:09:43.386Z,12.98
2022-11-09T03:14:44.982Z,7.85
2022-11-09T03:19:46.596Z,5.95
2022-11-09T03:24:48.328Z,6.18
2022-11-09T03:29:49.981Z,6.20
2022-11-09T03:34:51.706Z,7.03
2022-11-09T03:39:53.339Z,4.13
2022-11-09T03:44:54.954Z,6.93
2022-11-09T03:49:56.598Z,4.47
2022-11-09T03:54:58.232Z,7.20
2022-11-09T03:59:59.882Z,4.28
2022-11-09T04:05:01.572Z,4.53
2022-11-09T04:10:03.497Z,4.10
2022-11-09T04:15:05.568Z,5.20
2022-11-09T04:20:09.347Z,2.88
2022-11-09T04:25:11.113Z,4.93
2022-11-09T04:30:12.934Z,2.55
2022-11-09T04:35:14.617Z,4.05
2022-11-09T04:40:16.227Z,2.92
2022-11-09T04:45:17.884Z,2.72
2022-11-09T04:50:19.511Z,4.32
2022-11-09T04:55:21.436Z,3.58
2022-11-09T05:00:23.080Z,2.50
2022-11-09T05:05:24.707Z,3.30
2022-11-09T05:10:26.335Z,3.63
2022-11-09T05:15:28.318Z,5.82
2022-11-09T05:20:31.218Z,5.90
2022-11-09T05:25:33.116Z,4.15
2022-11-09T05:30:34.932Z,4.07
2022-11-09T05:35:36.591Z,3.47
2022-11-09T05:40:38.198Z,6.90
2022-11-09T05:45:43.130Z,5.47
2022-11-09T05:50:45.440Z,3.50
2022-11-09T05:55:47.076Z,3.78
2022-11-09T06:00:48.722Z,4.30
2022-11-09T06:05:50.332Z,4.85
2022-11-09T06:10:58.662Z,2.80
2022-11-09T06:16:02.359Z,4.38
2022-11-09T06:21:05.592Z,7.30
2022-11-09T06:26:10.144Z,5.00
2022-11-09T06:31:14.094Z,3.75
2022-11-09T06:36:15.742Z,3.55
2022-11-09T06:41:18.103Z,5.07
2022-11-09T06:46:21.104Z,4.30
2022-11-09T06:51:22.931Z,6.03
2022-11-09T06:56:24.567Z,4.35
2022-11-09T07:01:29.578Z,4.00
2022-11-09T07:06:31.276Z,2.72
2022-11-09T07:11:32.939Z,4.50
2022-11-09T07:16:34.688Z,4.60
2022-11-09T07:21:36.308Z,3.00
2022-11-09T07:26:37.932Z,2.75
2022-11-09T07:31:39.543Z,2.70
2022-11-09T07:36:41.188Z,2.70
2022-11-09T07:41:42.879Z,3.45
2022-11-09T07:46:50.078Z,3.55
2022-11-09T07:51:51.696Z,9.60
2022-11-09T07:56:53.360Z,3.53
2022-11-09T08:01:55.006Z,2.50
2022-11-09T08:06:56.760Z,1.55
2022-11-09T08:11:58.430Z,3.20
2022-11-09T08:17:00.663Z,1.95
2022-11-09T08:22:02.294Z,4.38
2022-11-09T08:27:04.099Z,3.33
2022-11-09T08:32:05.991Z,2.00
2022-11-09T08:37:07.637Z,2.53
2022-11-09T08:42:09.606Z,2.70
2022-11-09T08:47:11.219Z,2.67
2022-11-09T08:52:13.620Z,2.70
2022-11-09T08:57:17.894Z,3.42
2022-11-09T09:02:20.727Z,4.50
2022-11-09T09:07:22.658Z,2.83
2022-11-09T09:12:24.408Z,3.63
2022-11-09T09:17:26.296Z,3.85
2022-11-09T09:22:27.914Z,2.70
2022-11-09T09:27:29.974Z,3.42
2022-11-09T09:32:31.619Z,4.57
2022-11-09T09:37:33.230Z,5.43
2022-11-09T09:42:43.627Z,4.75
2022-11-09T09:47:48.165Z,5.82
2022-11-09T09:53:30.114Z,6.68
2022-11-09T09:58:34.936Z,5.10
2022-11-09T10:03:37.248Z,4.28
2022-11-09T10:09:23.929Z,3.63
2022-11-09T10:14:47.455Z,3.70
2022-11-09T10:19:57.863Z,5.03
2022-11-09T10:30:25.768Z,4.38
2022-11-09T10:35:35.539Z,3.72
2022-11-09T10:41:14.721Z,4.93
2022-11-09T10:46:16.372Z,5.88
2022-11-09T10:51:40.134Z,5.80
2022-11-09T10:57:05.497Z,5.35
2022-11-09T11:02:26.610Z,4.90
2022-11-09T11:07:28.539Z,6.47
2022-11-09T11:12:30.670Z,7.18
2022-11-09T11:17:37.919Z,6.38
2022-11-09T11:22:39.547Z,5.32
2022-11-09T11:27:43.629Z,3.75
2022-11-09T11:32:50.467Z,5.15
2022-11-09T11:38:14.440Z,4.80
2022-11-09T11:43:34.815Z,4.93
2022-11-09T11:49:06.536Z,5.20
2022-11-09T11:54:23.729Z,6.93
2022-11-09T11:59:44.204Z,6.45
2022-11-09T12:05:16.987Z,5.95
2022-11-09T12:10:40.375Z,5.90
2022-11-09T12:15:48.042Z,4.00
2022-11-09T12:21:19.277Z,5.65
2022-11-09T12:31:46.430Z,6.30
2022-11-09T12:36:54.582Z,11.70
2022-11-09T12:42:01.581Z,8.75
2022-11-09T12:47:15.497Z,6.43
2022-11-09T12:52:22.120Z,5.07
2022-11-09T12:57:29.245Z,5.03
2022-11-09T13:02:37.980Z,4.93
2022-11-09T13:07:58.540Z,8.82
2022-11-09T13:13:07.280Z,5.13
2022-11-09T13:18:51.375Z,5.82
2022-11-09T13:24:01.169Z,7.22
2022-11-09T13:29:21.976Z,8.70
2022-11-09T13:34:39.257Z,12.02
2022-11-09T13:39:40.925Z,8.07
2022-11-09T13:44:45.828Z,9.40
2022-11-09T13:49:51.056Z,5.70
2022-11-09T13:54:54.698Z,14.70
2022-11-09T13:59:59.855Z,8.50
2022-11-09T14:05:01.982Z,5.93
2022-11-09T14:10:41.841Z,9.68
2022-11-09T14:16:15.046Z,11.18
2022-11-09T14:21:38.143Z,9.65
2022-11-09T14:26:39.755Z,8.70
2022-11-09T14:31:45.592Z,6.47
2022-11-09T14:36:47.416Z,8.00
2022-11-09T14:41:49.962Z,7.35
2022-11-09T14:46:56.582Z,7.10
2022-11-09T14:51:58.821Z,9.13
2022-11-09T14:57:01.009Z,5.25
2022-11-09T15:02:05.260Z,8.07
2022-11-09T15:07:07.071Z,8.77
2022-11-09T15:12:19.757Z,12.45
2022-11-09T15:17:29.125Z,9.05
2022-11-09T15:22:52.074Z,12.55
2022-11-09T15:28:12.080Z,6.60
2022-11-09T15:33:20.130Z,8.40
2022-11-09T15:38:37.796Z,7.57
2022-11-09T15:43:39.588Z,7.63
2022-11-09T15:48:45.729Z,5.82
2022-11-09T15:53:47.808Z,9.02
2022-11-09T15:58:52.512Z,6.35
2022-11-09T16:03:54.172Z,6.15
2022-11-09T16:08:55.897Z,7.00
2022-11-09T16:14:00.214Z,8.68
2022-11-09T16:19:01.932Z,5.75
2022-11-09T16:24:03.747Z,9.18
2022-11-09T16:29:05.416Z,11.10
2022-11-09T16:34:07.107Z,8.82
2022-11-09T16:39:12.871Z,6.13
2022-11-09T16:44:17.244Z,8.88
2022-11-09T16:49:18.905Z,10.00
2022-11-09T16:54:20.810Z,7.32
2022-11-09T16:59:23.321Z,9.45
2022-11-09T17:04:25.543Z,6.65
2022-11-09T17:09:27.172Z,8.95
2022-11-09T17:14:29.604Z,7.97
2022-11-09T17:19:35.868Z,9.50
2022-11-09T17:24:37.898Z,6.38
2022-11-09T17:29:40.438Z,7.05
2022-11-09T17:34:42.095Z,8.27
2022-11-09T17:39:44.129Z,9.02
2022-11-09T17:44:46.490Z,9.85
2022-11-09T17:49:48.212Z,9.00
2022-11-09T17:54:49.851Z,13.88
2022-11-09T17:59:51.523Z,5.68
2022-11-09T18:04:53.196Z,10.13
2022-11-09T18:09:54.956Z,6.18
2022-11-09T18:14:56.928Z,8.73
2022-11-09T18:19:58.555Z,5.78
2022-11-09T18:25:00.946Z,8.85
2022-11-09T18:30:04.778Z,9.50
2022-11-09T18:35:07.523Z,7.10
2022-11-09T18:40:09.619Z,9.23
2022-11-09T18:45:12.548Z,11.98
2022-11-09T18:50:14.523Z,10.25
2022-11-09T18:55:16.259Z,9.95
2022-11-09T19:00:18.638Z,9.57
2022-11-09T19:05:20.258Z,8.32
2022-11-09T19:10:21.896Z,8.82
2022-11-09T19:15:24.080Z,9.18
2022-11-09T19:20:25.816Z,10.75
2022-11-09T19:25:27.580Z,7.53
2022-11-09T19:30:29.245Z,8.18
2022-11-09T19:35:33.799Z,9.00
2022-11-09T19:40:39.878Z,9.95
2022-11-09T19:45:42.138Z,8.27
2022-11-09T19:50:48.736Z,11.05
2022-11-09T19:55:50.362Z,10.65
2022-11-09T20:00:52.056Z,8.80
2022-11-09T20:05:54.539Z,7.97
2022-11-09T20:10:56.198Z,10.02
2022-11-09T20:16:05.054Z,8.65
2022-11-09T20:21:07.105Z,5.93
2022-11-09T20:26:11.430Z,8.57
2022-11-09T20:31:16.659Z,11.60
2022-11-09T20:36:21.605Z,11.15
2022-11-09T20:41:25.550Z,8.27
2022-11-09T20:46:32.707Z,9.90
2022-11-09T20:51:37.290Z,9.50
2022-11-09T20:56:40.020Z,14.20
2022-11-09T21:01:41.652Z,6.05
2022-11-09T21:06:43.412Z,14.85
2022-11-09T21:12:03.611Z,11.95
2022-11-09T21:17:05.253Z,8.90
2022-11-09T21:22:07.141Z,8.77
2022-11-09T21:27:30.107Z,8.88
2022-11-09T21:32:31.778Z,7.38
2022-11-09T21:37:33.440Z,9.95
2022-11-09T21:42:35.295Z,8.32
2022-11-09T21:47:37.415Z,9.90
2022-11-09T21:52:39.025Z,10.25
2022-11-09T21:57:40.648Z,12.15
2022-11-09T22:02:42.281Z,11.38
2022-11-09T22:07:43.898Z,10.85
2022-11-09T22:13:04.116Z,12.57
2022-11-09T22:18:06.024Z,10.70
2022-11-09T22:23:08.445Z,8.48
2022-11-09T22:28:10.189Z,10.85
2022-11-09T22:33:11.900Z,11.05
2022-11-09T22:38:13.518Z,10.60
2022-11-09T22:43:15.353Z,9.10
2022-11-09T22:48:17.096Z,11.65
2022-11-09T22:53:18.956Z,9.05
2022-11-09T22:58:21.671Z,14.80
2022-11-09T23:03:23.645Z,13.00
2022-11-09T23:08:25.631Z,8.50
2022-11-09T23:13:27.283Z,14.88
2022-11-09T23:18:48.157Z,9.82
2022-11-09T23:23:51.252Z,12.10
2022-11-09T23:28:53.676Z,8.75
2022-11-09T23:33:57.663Z,12.45
2022-11-09T23:38:59.319Z,13.32
2022-11-09T23:44:00.932Z,13.23
2022-11-09T23:49:02.733Z,13.38
2022-11-09T23:54:04.444Z,15.50
2022-11-09T23:59:06.168Z,10.95
